Terminal Aerodrome Forecast
Issued by NWS Cleveland, OH

Home | Current Version | Previous Version | Graphics & Text | Print | Product List | Glossary Off
Versions: 1 2 3 4 5 6 7 8 9 10 11 12 13 14 15 16 17 18

000
FTUS41 KCLE 181400 AAA
TAFERI
TAF AMD
KERI 181434Z 1815/1912 27012KT P6SM SCT200
     FM181600 29010KT P6SM FEW050 SCT200
     FM182000 01010KT P6SM SCT200
     FM182300 04008KT P6SM BKN200=

USA.gov is the U.S. government's official web portal to all federal, state and local government web resources and services.